createdAt,value
2017-05-15T00:00:24.268Z,41
2017-05-15T00:01:32.354Z,41
2017-05-15T00:02:40.439Z,41
2017-05-15T00:03:48.523Z,41
2017-05-15T00:04:56.610Z,41
2017-05-15T00:06:04.697Z,41
2017-05-15T00:07:12.783Z,41
2017-05-15T00:08:20.911Z,41
2017-05-15T00:09:28.955Z,41
2017-05-15T00:10:37.041Z,41
2017-05-15T00:11:45.123Z,41
2017-05-15T00:12:53.219Z,41
2017-05-15T00:14:01.303Z,41
2017-05-15T00:15:09.388Z,41
2017-05-15T00:16:17.476Z,41
2017-05-15T00:17:25.568Z,41
2017-05-15T00:18:33.643Z,41
2017-05-15T00:19:41.730Z,41
2017-05-15T00:20:49.818Z,41
2017-05-15T00:21:57.905Z,41
2017-05-15T00:23:05.988Z,41
2017-05-15T00:24:14.074Z,41
2017-05-15T00:25:22.161Z,41
2017-05-15T00:26:30.246Z,41
2017-05-15T00:27:38.333Z,41
2017-05-15T00:28:46.416Z,41
2017-05-15T00:29:54.499Z,41
2017-05-15T00:31:02.587Z,41
2017-05-15T00:32:10.675Z,41
2017-05-15T00:33:18.758Z,41
2017-05-15T00:34:26.849Z,41
2017-05-15T00:35:34.929Z,41
2017-05-15T00:36:43.015Z,41
2017-05-15T00:37:51.102Z,41
2017-05-15T00:38:59.188Z,41
2017-05-15T00:40:07.273Z,41
2017-05-15T00:41:15.356Z,41
2017-05-15T00:42:23.443Z,41
2017-05-15T00:43:31.535Z,41
2017-05-15T00:44:39.615Z,41
2017-05-15T00:45:47.701Z,41
2017-05-15T00:46:55.789Z,41
2017-05-15T00:48:03.878Z,41
2017-05-15T00:49:11.971Z,41
2017-05-15T00:50:20.047Z,41
2017-05-15T00:51:28.139Z,41
2017-05-15T00:52:36.219Z,41
2017-05-15T00:53:44.306Z,41
2017-05-15T00:54:52.389Z,41
2017-05-15T00:56:00.475Z,41
2017-05-15T00:57:08.561Z,41
2017-05-15T00:58:16.652Z,40
2017-05-15T00:59:24.737Z,41
2017-05-15T01:00:32.820Z,41
2017-05-15T01:01:40.908Z,41
2017-05-15T01:02:48.994Z,41
2017-05-15T01:03:57.080Z,41
2017-05-15T01:05:05.162Z,41
2017-05-15T01:06:13.253Z,41
2017-05-15T01:07:21.332Z,41
2017-05-15T01:08:29.478Z,41
2017-05-15T01:09:37.509Z,40
2017-05-15T01:10:45.588Z,41
2017-05-15T01:11:53.678Z,41
2017-05-15T01:13:01.762Z,40
2017-05-15T01:14:09.856Z,40
2017-05-15T01:15:17.932Z,41
2017-05-15T01:16:26.016Z,40
2017-05-15T01:17:34.104Z,40
2017-05-15T01:18:42.192Z,40
2017-05-15T01:19:50.272Z,41
2017-05-15T01:20:58.361Z,41
2017-05-15T01:22:06.444Z,40
2017-05-15T01:23:14.532Z,41
2017-05-15T01:24:22.616Z,41
2017-05-15T01:25:30.702Z,40
2017-05-15T01:26:38.789Z,41
2017-05-15T01:27:46.875Z,41
2017-05-15T01:28:54.957Z,41
2017-05-15T01:30:03.041Z,40
2017-05-15T01:31:11.128Z,41
2017-05-15T01:32:19.218Z,41
2017-05-15T01:33:27.302Z,40
2017-05-15T01:34:35.386Z,40
2017-05-15T01:35:43.471Z,41
2017-05-15T01:36:51.557Z,41
2017-05-15T01:37:59.643Z,40
2017-05-15T01:39:07.730Z,41
2017-05-15T01:40:15.812Z,40
2017-05-15T01:41:23.900Z,41
2017-05-15T01:42:31.985Z,40
2017-05-15T01:43:40.073Z,40
2017-05-15T01:44:48.160Z,41
2017-05-15T01:45:56.240Z,41
2017-05-15T01:47:04.327Z,41
2017-05-15T01:48:12.416Z,41
2017-05-15T01:49:20.496Z,40
2017-05-15T01:50:28.582Z,40
2017-05-15T01:51:36.667Z,40
2017-05-15T01:52:44.754Z,41
2017-05-15T01:53:52.840Z,41
2017-05-15T01:55:00.927Z,41
2017-05-15T01:56:09.009Z,41
2017-05-15T01:57:17.099Z,40
2017-05-15T01:58:25.181Z,40
2017-05-15T01:59:33.268Z,41
2017-05-15T02:00:41.351Z,41
2017-05-15T02:01:49.447Z,41
2017-05-15T02:02:57.523Z,41
2017-05-15T02:04:05.610Z,40
2017-05-15T02:05:13.694Z,40
2017-05-15T02:06:21.785Z,41
2017-05-15T02:07:29.966Z,41
2017-05-15T02:08:37.959Z,41
2017-05-15T02:09:46.045Z,41
2017-05-15T02:10:54.132Z,41
2017-05-15T02:12:02.217Z,41
2017-05-15T02:13:10.305Z,41
2017-05-15T02:14:18.391Z,41
2017-05-15T02:15:26.478Z,40
2017-05-15T02:16:34.558Z,41
2017-05-15T02:17:42.646Z,41
2017-05-15T02:18:50.732Z,41
2017-05-15T02:19:58.821Z,41
2017-05-15T02:21:06.907Z,41
2017-05-15T02:22:14.989Z,40
2017-05-15T02:23:23.074Z,40
2017-05-15T02:24:31.255Z,41
2017-05-15T02:25:39.245Z,41
2017-05-15T02:26:47.328Z,40
2017-05-15T02:27:55.416Z,41
2017-05-15T02:29:03.501Z,40
2017-05-15T02:30:11.586Z,40
2017-05-15T02:31:19.675Z,41
2017-05-15T02:32:27.764Z,41
2017-05-15T02:33:35.849Z,41
2017-05-15T02:34:43.932Z,41
2017-05-15T02:35:52.020Z,40
2017-05-15T02:37:00.111Z,41
2017-05-15T02:38:08.191Z,40
2017-05-15T02:39:16.280Z,40
2017-05-15T02:40:24.361Z,41
2017-05-15T02:41:32.487Z,41
2017-05-15T02:42:40.537Z,40
2017-05-15T02:43:48.622Z,41
2017-05-15T02:44:56.712Z,40
2017-05-15T02:46:04.792Z,41
2017-05-15T02:47:12.880Z,41
2017-05-15T02:48:20.964Z,41
2017-05-15T02:49:29.052Z,40
2017-05-15T02:50:37.139Z,40
2017-05-15T02:51:45.221Z,40
2017-05-15T02:52:53.306Z,40
2017-05-15T02:54:01.395Z,41
2017-05-15T02:55:09.479Z,40
2017-05-15T02:56:17.562Z,41
2017-05-15T02:57:25.648Z,41
2017-05-15T02:58:33.732Z,41
2017-05-15T02:59:41.821Z,40
2017-05-15T03:00:49.904Z,41
2017-05-15T03:01:57.989Z,41
2017-05-15T03:03:06.074Z,41
2017-05-15T03:04:14.162Z,41
2017-05-15T03:05:22.245Z,41
2017-05-15T03:06:30.330Z,41
2017-05-15T03:07:38.415Z,41
2017-05-15T03:08:46.502Z,40
2017-05-15T03:09:54.588Z,41
2017-05-15T03:11:02.677Z,41
2017-05-15T03:12:10.756Z,40
2017-05-15T03:13:18.841Z,41
2017-05-15T03:14:26.931Z,41
2017-05-15T03:15:35.013Z,41
2017-05-15T03:16:43.102Z,40
2017-05-15T03:17:51.186Z,40
2017-05-15T03:18:59.272Z,41
2017-05-15T03:20:07.363Z,41
2017-05-15T03:21:15.442Z,41
2017-05-15T03:22:23.528Z,41
2017-05-15T03:23:31.615Z,40
2017-05-15T03:24:39.701Z,40
2017-05-15T03:25:47.784Z,41
2017-05-15T03:26:55.870Z,41
2017-05-15T03:28:03.955Z,40
2017-05-15T03:29:12.054Z,40
2017-05-15T03:30:20.127Z,41
2017-05-15T03:31:28.211Z,40
2017-05-15T03:32:36.292Z,41
2017-05-15T03:33:44.383Z,40
2017-05-15T03:34:52.467Z,40
2017-05-15T03:36:00.554Z,40
2017-05-15T03:37:08.720Z,40
2017-05-15T03:38:16.721Z,40
2017-05-15T03:39:24.812Z,40
2017-05-15T03:40:32.894Z,40
2017-05-15T03:41:40.984Z,40
2017-05-15T03:42:49.066Z,41
2017-05-15T03:43:57.150Z,41
2017-05-15T03:45:05.238Z,41
2017-05-15T03:46:13.326Z,41
2017-05-15T03:47:21.410Z,40
2017-05-15T03:48:29.490Z,40
2017-05-15T03:49:37.576Z,40
2017-05-15T03:50:45.665Z,40
2017-05-15T03:51:53.750Z,40
2017-05-15T03:53:01.832Z,40
2017-05-15T03:54:09.918Z,41
2017-05-15T03:55:18.014Z,40
2017-05-15T03:56:26.091Z,41
2017-05-15T03:57:34.176Z,41
2017-05-15T03:58:42.266Z,40
2017-05-15T03:59:50.347Z,41
2017-05-15T04:00:58.432Z,40
2017-05-15T04:02:06.519Z,40
2017-05-15T04:03:14.613Z,41
2017-05-15T04:04:22.686Z,41
2017-05-15T04:05:30.777Z,40
2017-05-15T04:06:38.858Z,40
2017-05-15T04:07:46.949Z,41
2017-05-15T04:08:55.041Z,41
2017-05-15T04:10:03.120Z,41
2017-05-15T04:11:11.207Z,41
2017-05-15T04:12:19.292Z,41
2017-05-15T04:13:27.382Z,41
2017-05-15T04:14:35.463Z,41
2017-05-15T04:15:43.550Z,41
2017-05-15T04:16:51.631Z,40
2017-05-15T04:17:59.716Z,41
2017-05-15T04:19:07.803Z,41
2017-05-15T04:20:15.887Z,41
2017-05-15T04:21:23.974Z,41
2017-05-15T04:22:32.058Z,41
2017-05-15T04:23:40.148Z,41
2017-05-15T04:24:48.226Z,41
2017-05-15T04:25:56.314Z,41
2017-05-15T04:27:04.398Z,41
2017-05-15T04:28:12.484Z,41
2017-05-15T04:29:20.574Z,41
2017-05-15T04:30:28.653Z,41
2017-05-15T04:31:36.741Z,41
2017-05-15T04:32:44.834Z,41
2017-05-15T04:33:52.913Z,41
2017-05-15T04:35:00.994Z,41
2017-05-15T04:36:09.081Z,41
2017-05-15T04:37:17.964Z,41
2017-05-15T04:38:25.265Z,41
2017-05-15T04:39:33.343Z,41
2017-05-15T04:40:41.429Z,41
2017-05-15T04:41:49.517Z,41
2017-05-15T04:42:57.798Z,41
2017-05-15T04:44:05.688Z,41
2017-05-15T04:45:13.771Z,41
2017-05-15T04:46:21.860Z,41
2017-05-15T04:47:29.941Z,41
2017-05-15T04:48:38.032Z,41
2017-05-15T04:49:46.110Z,41
2017-05-15T04:50:54.196Z,41
2017-05-15T04:52:02.284Z,41
2017-05-15T04:53:10.366Z,41
2017-05-15T04:54:18.483Z,41
2017-05-15T04:55:26.542Z,41
2017-05-15T04:56:34.629Z,41
2017-05-15T04:57:42.717Z,41
2017-05-15T04:58:50.801Z,41
2017-05-15T04:59:58.890Z,41
2017-05-15T05:01:06.971Z,41
2017-05-15T05:02:15.059Z,41
2017-05-15T05:03:23.141Z,41
2017-05-15T05:04:31.226Z,41
2017-05-15T05:05:39.312Z,41
2017-05-15T05:06:47.403Z,41
2017-05-15T05:07:55.483Z,41
2017-05-15T05:09:03.574Z,41
2017-05-15T05:10:11.654Z,41
2017-05-15T05:11:19.736Z,41
2017-05-15T05:12:27.826Z,41
2017-05-15T05:13:35.909Z,42
2017-05-15T05:14:44.000Z,42
2017-05-15T05:15:52.085Z,42
2017-05-15T05:17:00.169Z,42
2017-05-15T05:18:08.975Z,42
2017-05-15T05:19:16.943Z,42
2017-05-15T05:20:24.485Z,42
2017-05-15T05:21:32.512Z,42
2017-05-15T05:22:40.595Z,42
2017-05-15T05:23:48.683Z,42
2017-05-15T05:24:56.766Z,42
2017-05-15T05:26:04.856Z,42
2017-05-15T05:27:12.938Z,41
2017-05-15T05:28:21.022Z,42
2017-05-15T05:29:29.105Z,42
2017-05-15T05:30:37.197Z,42
2017-05-15T05:31:45.277Z,42
2017-05-15T05:32:53.367Z,41
2017-05-15T05:34:01.448Z,42
2017-05-15T05:35:09.531Z,42
2017-05-15T05:36:17.717Z,42
2017-05-15T05:37:25.703Z,41
2017-05-15T05:38:33.785Z,42
2017-05-15T05:39:41.968Z,42
2017-05-15T05:40:49.956Z,41
2017-05-15T05:41:58.543Z,42
2017-05-15T05:43:06.128Z,42
2017-05-15T05:44:14.821Z,42
2017-05-15T05:45:22.302Z,41
2017-05-15T05:46:30.385Z,42
2017-05-15T05:47:38.468Z,42
2017-05-15T05:48:46.553Z,42
2017-05-15T05:49:54.730Z,42
2017-05-15T05:51:02.724Z,42
2017-05-15T05:52:10.809Z,42
2017-05-15T05:53:18.971Z,42
2017-05-15T05:54:26.979Z,42
2017-05-15T05:55:35.066Z,42
2017-05-15T05:56:43.155Z,42
2017-05-15T05:57:51.235Z,42
2017-05-15T05:58:59.737Z,42
2017-05-15T06:00:07.402Z,42
2017-05-15T06:01:16.270Z,43
2017-05-15T06:02:23.575Z,43
2017-05-15T06:03:31.667Z,43
2017-05-15T06:04:40.174Z,43
2017-05-15T06:05:47.847Z,43
2017-05-15T06:06:55.918Z,43
2017-05-15T06:08:04.185Z,43
2017-05-15T06:09:12.464Z,43
2017-05-15T06:10:20.192Z,43
2017-05-15T06:11:28.257Z,43
2017-05-15T06:12:36.796Z,43
2017-05-15T06:13:44.688Z,43
2017-05-15T06:14:52.668Z,43
2017-05-15T06:16:00.595Z,43
2017-05-15T06:17:08.949Z,43
2017-05-15T06:18:16.856Z,43
2017-05-15T06:19:24.851Z,43
2017-05-15T06:20:33.096Z,43
2017-05-15T06:21:41.535Z,43
2017-05-15T06:22:49.162Z,43
2017-05-15T06:23:57.530Z,43
2017-05-15T06:25:05.351Z,43
2017-05-15T06:26:13.361Z,43
2017-05-15T06:27:21.442Z,43
2017-05-15T06:28:29.528Z,43
2017-05-15T06:29:38.177Z,43
2017-05-15T06:30:45.829Z,43
2017-05-15T06:31:53.907Z,43
2017-05-15T06:33:02.399Z,43
2017-05-15T06:34:09.958Z,43
2017-05-15T06:35:18.485Z,43
2017-05-15T06:36:26.516Z,43
2017-05-15T06:37:34.215Z,42
2017-05-15T06:38:42.305Z,43
2017-05-15T06:39:50.380Z,42
2017-05-15T06:40:58.486Z,42
2017-05-15T06:42:06.547Z,42
2017-05-15T06:43:14.634Z,42
2017-05-15T06:44:22.720Z,42
2017-05-15T06:45:30.807Z,42
2017-05-15T06:46:38.893Z,42
2017-05-15T06:47:46.974Z,42
2017-05-15T06:48:55.059Z,42
2017-05-15T06:50:03.674Z,42
2017-05-15T06:51:11.230Z,43
2017-05-15T06:52:19.815Z,43
2017-05-15T06:53:27.398Z,43
2017-05-15T06:54:35.487Z,43
2017-05-15T06:55:43.566Z,43
2017-05-15T06:56:51.652Z,43
2017-05-15T06:57:59.749Z,43
2017-05-15T06:59:07.819Z,43
2017-05-15T07:00:15.909Z,42
2017-05-15T07:01:24.067Z,42
2017-05-15T07:02:32.080Z,42
2017-05-15T07:03:40.163Z,42
2017-05-15T07:04:48.255Z,43
2017-05-15T07:05:56.337Z,42
2017-05-15T07:07:04.420Z,42
2017-05-15T07:08:12.503Z,43
2017-05-15T07:09:20.591Z,42
2017-05-15T07:10:28.676Z,42
2017-05-15T07:11:36.762Z,42
2017-05-15T07:12:44.847Z,42
2017-05-15T07:13:52.934Z,42
2017-05-15T07:15:01.205Z,42
2017-05-15T07:16:09.102Z,42
2017-05-15T07:17:17.189Z,42
2017-05-15T07:18:25.279Z,42
2017-05-15T07:19:33.360Z,42
2017-05-15T07:20:41.445Z,42
2017-05-15T07:21:49.530Z,42
2017-05-15T07:22:57.614Z,42
2017-05-15T07:24:05.703Z,42
2017-05-15T07:25:13.802Z,42
2017-05-15T07:26:21.879Z,42
2017-05-15T07:27:29.967Z,42
2017-05-15T07:28:38.050Z,42
2017-05-15T07:29:46.134Z,42
2017-05-15T07:30:54.221Z,42
2017-05-15T07:32:02.309Z,42
2017-05-15T07:33:10.394Z,42
2017-05-15T07:34:18.475Z,42
2017-05-15T07:35:26.563Z,42
2017-05-15T07:36:34.646Z,42
2017-05-15T07:37:42.821Z,42
2017-05-15T07:38:50.826Z,42
2017-05-15T07:39:58.911Z,42
2017-05-15T07:41:06.992Z,42
2017-05-15T07:42:15.080Z,42
2017-05-15T07:43:23.174Z,42
2017-05-15T07:44:31.260Z,42
2017-05-15T07:45:39.341Z,42
2017-05-15T07:46:47.744Z,42
2017-05-15T07:47:55.511Z,42
2017-05-15T07:49:03.603Z,42
2017-05-15T07:50:11.804Z,42
2017-05-15T07:51:19.796Z,42
2017-05-15T07:52:27.857Z,42
2017-05-15T07:53:35.940Z,41
2017-05-15T07:54:44.026Z,41
2017-05-15T07:55:52.111Z,41
2017-05-15T07:57:00.198Z,41
2017-05-15T07:58:08.289Z,41
2017-05-15T07:59:16.376Z,41
2017-05-15T08:00:24.462Z,41
2017-05-15T08:01:32.795Z,41
2017-05-15T08:02:40.632Z,42
2017-05-15T08:03:48.717Z,42
2017-05-15T08:04:56.845Z,41
2017-05-15T08:06:04.892Z,42
2017-05-15T08:07:12.975Z,41
2017-05-15T08:08:21.067Z,41
2017-05-15T08:09:29.147Z,42
2017-05-15T08:10:37.248Z,41
2017-05-15T08:11:45.317Z,42
2017-05-15T08:12:53.407Z,41
2017-05-15T08:14:01.493Z,41
2017-05-15T08:15:09.572Z,42
2017-05-15T08:16:17.661Z,41
2017-05-15T08:17:25.754Z,42
2017-05-15T08:18:33.833Z,42
2017-05-15T08:19:41.920Z,41
2017-05-15T08:20:50.006Z,42
2017-05-15T08:21:58.089Z,42
2017-05-15T08:23:06.178Z,42
2017-05-15T08:24:14.268Z,41
2017-05-15T08:25:22.614Z,41
2017-05-15T08:26:30.438Z,42
2017-05-15T08:27:38.522Z,41
2017-05-15T08:28:46.609Z,41
2017-05-15T08:29:54.691Z,41
2017-05-15T08:31:02.847Z,42
2017-05-15T08:32:10.862Z,42
2017-05-15T08:33:18.956Z,42
2017-05-15T08:34:27.047Z,42
2017-05-15T08:35:35.129Z,42
2017-05-15T08:36:43.214Z,41
2017-05-15T08:37:51.303Z,41
2017-05-15T08:38:59.389Z,41
2017-05-15T08:40:07.477Z,42
2017-05-15T08:41:15.561Z,42
2017-05-15T08:42:23.646Z,42
2017-05-15T08:43:31.771Z,41
2017-05-15T08:44:39.874Z,41
2017-05-15T08:45:47.908Z,41
2017-05-15T08:46:55.994Z,42
2017-05-15T08:48:04.087Z,42
2017-05-15T08:49:12.164Z,42
2017-05-15T08:50:20.252Z,42
2017-05-15T08:51:28.335Z,42
2017-05-15T08:52:36.596Z,43
2017-05-15T08:53:44.509Z,42
2017-05-15T08:54:52.595Z,43
2017-05-15T08:56:00.685Z,42
2017-05-15T08:57:08.769Z,43
2017-05-15T08:58:16.855Z,43
2017-05-15T08:59:24.937Z,44
2017-05-15T09:00:33.024Z,44
2017-05-15T09:01:41.113Z,44
2017-05-15T09:02:49.199Z,43
2017-05-15T09:03:57.289Z,44
2017-05-15T09:05:05.373Z,43
2017-05-15T09:06:13.498Z,43
2017-05-15T09:07:21.539Z,43
2017-05-15T09:08:29.627Z,43
2017-05-15T09:09:37.756Z,44
2017-05-15T09:10:45.799Z,45
2017-05-15T09:11:53.890Z,44
2017-05-15T09:13:01.975Z,44
2017-05-15T09:14:10.060Z,44
2017-05-15T09:15:18.149Z,44
2017-05-15T09:16:26.241Z,44
2017-05-15T09:17:34.318Z,45
2017-05-15T09:18:42.407Z,45
2017-05-15T09:19:50.491Z,45
2017-05-15T09:20:58.577Z,45
2017-05-15T09:22:06.666Z,45
2017-05-15T09:23:14.752Z,46
2017-05-15T09:24:22.835Z,46
2017-05-15T09:25:30.923Z,45
2017-05-15T09:26:39.053Z,45
2017-05-15T09:27:47.103Z,46
2017-05-15T09:28:55.178Z,45
2017-05-15T09:30:03.269Z,46
2017-05-15T09:31:11.353Z,46
2017-05-15T09:32:19.439Z,46
2017-05-15T09:33:27.524Z,46
2017-05-15T09:34:35.610Z,45
2017-05-15T09:35:43.694Z,46
2017-05-15T09:36:51.779Z,45
2017-05-15T09:37:59.864Z,45
2017-05-15T09:39:07.954Z,46
2017-05-15T09:40:16.042Z,46
2017-05-15T09:41:24.125Z,45
2017-05-15T09:42:32.213Z,46
2017-05-15T09:43:40.300Z,46
2017-05-15T09:44:48.385Z,46
2017-05-15T09:45:56.468Z,46
2017-05-15T09:47:04.554Z,46
2017-05-15T09:48:12.645Z,46
2017-05-15T09:49:20.956Z,46
2017-05-15T09:50:28.823Z,47
2017-05-15T09:51:36.908Z,46
2017-05-15T09:52:44.991Z,46
2017-05-15T09:53:53.082Z,46
2017-05-15T09:55:01.163Z,46
2017-05-15T09:56:09.247Z,46
2017-05-15T09:57:17.336Z,47
2017-05-15T09:58:25.419Z,46
2017-05-15T09:59:33.513Z,46
2017-05-15T10:00:41.592Z,46
2017-05-15T10:01:49.690Z,46
2017-05-15T10:02:57.764Z,46
2017-05-15T10:04:05.851Z,46
2017-05-15T10:05:13.936Z,46
2017-05-15T10:06:22.027Z,46
2017-05-15T10:07:30.110Z,46
2017-05-15T10:08:38.200Z,46
2017-05-15T10:09:46.283Z,46
2017-05-15T10:10:54.370Z,46
2017-05-15T10:12:02.460Z,46
2017-05-15T10:13:10.540Z,46
2017-05-15T10:14:18.630Z,46
2017-05-15T10:15:26.717Z,46
2017-05-15T10:16:34.867Z,46
2017-05-15T10:17:42.884Z,46
2017-05-15T10:18:50.971Z,46
2017-05-15T10:19:59.059Z,46
2017-05-15T10:21:07.150Z,46
2017-05-15T10:22:15.236Z,46
2017-05-15T10:23:23.322Z,46
2017-05-15T10:24:31.410Z,46
2017-05-15T10:25:39.513Z,46
2017-05-15T10:26:47.582Z,46
2017-05-15T10:27:55.676Z,46
2017-05-15T10:29:03.760Z,46
2017-05-15T10:30:11.848Z,46
2017-05-15T10:31:19.935Z,46
2017-05-15T10:32:28.030Z,46
2017-05-15T10:33:36.104Z,46
2017-05-15T10:34:44.192Z,46
2017-05-15T10:35:52.277Z,46
2017-05-15T10:37:00.367Z,46
2017-05-15T10:38:08.455Z,46
2017-05-15T10:39:16.542Z,46
2017-05-15T10:40:24.622Z,46
2017-05-15T10:41:32.706Z,46
2017-05-15T10:42:40.801Z,46
2017-05-15T10:43:48.891Z,46
2017-05-15T10:44:56.972Z,46
2017-05-15T10:46:05.058Z,46
2017-05-15T10:47:13.146Z,46
2017-05-15T10:48:21.233Z,46
2017-05-15T10:49:29.317Z,46
2017-05-15T10:50:37.407Z,45
2017-05-15T10:51:45.489Z,45
2017-05-15T10:52:53.580Z,45
2017-05-15T10:54:01.686Z,45
2017-05-15T10:55:09.749Z,45
2017-05-15T10:56:17.837Z,45
2017-05-15T10:57:25.922Z,45
2017-05-15T10:58:34.010Z,45
2017-05-15T11:00:50.184Z,45
2017-05-15T11:01:58.262Z,45
2017-05-15T11:03:06.402Z,44
2017-05-15T11:05:22.523Z,45
2017-05-15T11:06:30.612Z,45
2017-05-15T11:07:38.697Z,45
2017-05-15T11:08:46.860Z,45
2017-05-15T11:09:55.344Z,44
2017-05-15T11:11:02.955Z,44
2017-05-15T11:13:19.129Z,45
2017-05-15T11:14:27.221Z,44
2017-05-15T11:15:35.300Z,44
2017-05-15T11:16:43.389Z,44
2017-05-15T11:17:51.474Z,44
2017-05-15T11:18:59.561Z,44
2017-05-15T11:20:07.645Z,44
2017-05-15T11:21:15.734Z,44
2017-05-15T11:22:23.820Z,44
2017-05-15T11:23:31.916Z,44
2017-05-15T11:24:39.996Z,43
2017-05-15T11:25:48.079Z,43
2017-05-15T11:26:56.175Z,43
2017-05-15T11:28:04.263Z,43
2017-05-15T11:29:12.339Z,43
2017-05-15T11:30:20.423Z,43
2017-05-15T11:31:28.515Z,43
2017-05-15T11:32:36.596Z,43
2017-05-15T11:33:44.681Z,42
2017-05-15T11:34:52.768Z,43
2017-05-15T11:36:00.859Z,43
2017-05-15T11:37:08.947Z,42
2017-05-15T11:38:17.042Z,43
2017-05-15T11:39:25.120Z,42
2017-05-15T11:40:33.204Z,42
2017-05-15T11:41:41.287Z,42
2017-05-15T11:42:49.397Z,42
2017-05-15T11:43:57.461Z,41
2017-05-15T11:45:05.603Z,41
2017-05-15T11:46:13.633Z,41
2017-05-15T11:47:21.725Z,41
2017-05-15T11:48:29.813Z,41
2017-05-15T11:49:37.890Z,42
2017-05-15T11:50:45.977Z,41
2017-05-15T11:51:54.075Z,42
2017-05-15T11:53:02.157Z,42
2017-05-15T11:54:10.237Z,42
2017-05-15T11:55:18.324Z,42
2017-05-15T11:56:26.410Z,42
2017-05-15T11:57:34.495Z,41
2017-05-15T11:58:42.612Z,42
2017-05-15T11:59:50.748Z,42
2017-05-15T12:00:58.758Z,42
2017-05-15T12:02:06.847Z,42
2017-05-15T12:03:14.938Z,42
2017-05-15T12:04:23.033Z,42
2017-05-15T12:05:31.106Z,42
2017-05-15T12:06:39.192Z,42
2017-05-15T12:07:47.364Z,42
2017-05-15T12:08:55.362Z,42
2017-05-15T12:10:03.447Z,42
2017-05-15T12:11:11.532Z,42
2017-05-15T12:12:19.620Z,42
2017-05-15T12:13:27.708Z,42
2017-05-15T12:14:35.796Z,43
2017-05-15T12:15:43.882Z,43
2017-05-15T12:16:51.968Z,43
2017-05-15T12:18:00.059Z,43
2017-05-15T12:19:08.146Z,42
2017-05-15T12:20:16.231Z,42
2017-05-15T12:21:24.367Z,42
2017-05-15T12:22:32.409Z,43
2017-05-15T12:23:40.495Z,43
2017-05-15T12:24:48.579Z,43
2017-05-15T12:25:56.666Z,42
2017-05-15T12:27:04.751Z,42
2017-05-15T12:28:12.840Z,43
2017-05-15T12:29:20.926Z,43
2017-05-15T12:30:29.011Z,43
2017-05-15T12:31:37.097Z,42
2017-05-15T12:32:45.186Z,43
2017-05-15T12:33:53.271Z,43
2017-05-15T12:35:01.356Z,43
2017-05-15T12:36:09.442Z,43
2017-05-15T12:37:17.529Z,43
2017-05-15T12:38:25.618Z,43
2017-05-15T12:39:33.701Z,43
2017-05-15T12:40:41.788Z,43
2017-05-15T12:41:49.877Z,43
2017-05-15T12:42:57.962Z,42
2017-05-15T12:44:06.050Z,42
2017-05-15T12:45:14.137Z,42
2017-05-15T12:46:22.220Z,42
2017-05-15T12:47:30.309Z,42
2017-05-15T12:48:38.395Z,42
2017-05-15T12:49:46.482Z,42
2017-05-15T12:50:54.574Z,41
2017-05-15T12:52:02.654Z,42
2017-05-15T12:53:10.741Z,42
2017-05-15T12:54:18.829Z,41
2017-05-15T12:55:26.924Z,41
2017-05-15T12:56:34.999Z,41
2017-05-15T12:57:43.086Z,41
2017-05-15T12:58:51.177Z,41
2017-05-15T12:59:59.262Z,41
2017-05-15T13:01:07.346Z,41
2017-05-15T13:02:15.436Z,41
2017-05-15T13:03:23.522Z,41
2017-05-15T13:04:31.615Z,41
2017-05-15T13:05:39.693Z,41
2017-05-15T13:06:47.782Z,41
2017-05-15T13:07:55.868Z,41
2017-05-15T13:09:03.953Z,41
2017-05-15T13:10:12.040Z,41
2017-05-15T13:11:20.127Z,41
2017-05-15T13:12:28.213Z,41
2017-05-15T13:13:36.302Z,41
2017-05-15T13:14:44.387Z,41
2017-05-15T13:15:52.473Z,41
2017-05-15T13:17:00.566Z,40
2017-05-15T13:18:08.651Z,40
2017-05-15T13:19:16.738Z,41
2017-05-15T13:20:24.824Z,40
2017-05-15T13:21:32.940Z,41
2017-05-15T13:22:40.999Z,40
2017-05-15T13:23:49.086Z,40
2017-05-15T13:24:57.178Z,40
2017-05-15T13:26:05.257Z,40
2017-05-15T13:27:13.342Z,40
2017-05-15T13:28:21.459Z,40
2017-05-15T13:29:29.517Z,41
2017-05-15T13:30:37.903Z,40
2017-05-15T13:31:45.693Z,40
2017-05-15T13:32:53.777Z,40
2017-05-15T13:34:01.861Z,40
2017-05-15T13:35:09.951Z,40
2017-05-15T13:36:18.037Z,40
2017-05-15T13:37:26.123Z,40
2017-05-15T13:38:34.222Z,40
2017-05-15T13:39:42.296Z,40
2017-05-15T13:40:50.384Z,40
2017-05-15T13:41:58.513Z,40
2017-05-15T13:43:06.555Z,40
2017-05-15T13:44:14.644Z,40
2017-05-15T13:45:22.726Z,40
2017-05-15T13:46:30.814Z,40
2017-05-15T13:47:38.912Z,40
2017-05-15T13:48:46.989Z,40
2017-05-15T13:49:55.076Z,39
2017-05-15T13:51:03.164Z,40
2017-05-15T13:52:11.250Z,40
2017-05-15T13:53:19.336Z,39
2017-05-15T13:54:27.419Z,40
2017-05-15T13:55:35.508Z,40
2017-05-15T13:56:43.593Z,40
2017-05-15T13:57:51.682Z,40
2017-05-15T13:58:59.934Z,40
2017-05-15T14:00:07.856Z,40
2017-05-15T14:01:15.943Z,40
2017-05-15T14:02:24.029Z,39
2017-05-15T14:03:32.115Z,40
2017-05-15T14:04:40.200Z,40
2017-05-15T14:05:48.289Z,40
2017-05-15T14:06:56.376Z,40
2017-05-15T14:08:04.465Z,40
2017-05-15T14:09:12.550Z,40
2017-05-15T14:10:20.636Z,40
2017-05-15T14:11:28.761Z,40
2017-05-15T14:12:36.809Z,40
2017-05-15T14:13:44.896Z,40
2017-05-15T14:14:52.983Z,40
2017-05-15T14:16:01.391Z,40
2017-05-15T14:17:09.156Z,40
2017-05-15T14:18:17.243Z,40
2017-05-15T14:19:25.333Z,40
2017-05-15T14:20:33.418Z,40
2017-05-15T14:21:41.505Z,40
2017-05-15T14:22:49.619Z,40
2017-05-15T14:23:57.785Z,40
2017-05-15T14:25:05.763Z,40
2017-05-15T14:26:13.851Z,40
2017-05-15T14:27:21.936Z,40
2017-05-15T14:28:30.025Z,40
2017-05-15T14:29:38.112Z,40
2017-05-15T14:30:46.198Z,40
2017-05-15T14:31:54.287Z,40
2017-05-15T14:33:02.373Z,40
2017-05-15T14:34:10.458Z,40
2017-05-15T14:35:18.543Z,40
2017-05-15T14:36:26.634Z,40
2017-05-15T14:37:34.721Z,40
2017-05-15T14:38:42.806Z,40
2017-05-15T14:39:50.892Z,40
2017-05-15T14:40:58.981Z,40
2017-05-15T14:42:07.064Z,40
2017-05-15T14:43:15.152Z,40
2017-05-15T14:44:23.246Z,40
2017-05-15T14:45:31.333Z,40
2017-05-15T14:46:39.413Z,40
2017-05-15T14:47:47.500Z,40
2017-05-15T14:48:55.600Z,40
2017-05-15T14:50:03.673Z,40
2017-05-15T14:51:11.762Z,40
2017-05-15T14:52:19.849Z,40
2017-05-15T14:53:27.935Z,40
2017-05-15T14:54:36.019Z,40
2017-05-15T14:55:44.106Z,39
2017-05-15T14:56:52.190Z,40
2017-05-15T14:58:00.277Z,39
2017-05-15T14:59:08.366Z,40
2017-05-15T15:00:16.455Z,40
2017-05-15T15:01:24.540Z,40
2017-05-15T15:02:32.624Z,39
2017-05-15T15:03:40.711Z,40
2017-05-15T15:04:48.798Z,40
2017-05-15T15:05:56.884Z,40
2017-05-15T15:07:04.971Z,39
2017-05-15T15:08:13.056Z,40
2017-05-15T15:09:21.146Z,40
2017-05-15T15:10:29.245Z,40
2017-05-15T15:11:37.387Z,39
2017-05-15T15:12:45.403Z,39
2017-05-15T15:13:53.493Z,39
2017-05-15T15:15:01.571Z,39
2017-05-15T15:16:09.662Z,39
2017-05-15T15:17:17.749Z,39
2017-05-15T15:18:25.839Z,39
2017-05-15T15:19:33.952Z,39
2017-05-15T15:20:42.012Z,39
2017-05-15T15:21:50.624Z,39
2017-05-15T15:22:58.183Z,39
2017-05-15T15:24:06.268Z,39
2017-05-15T15:25:14.356Z,39
2017-05-15T15:26:22.443Z,39
2017-05-15T15:27:30.531Z,39
2017-05-15T15:28:38.681Z,39
2017-05-15T15:29:46.703Z,40
2017-05-15T15:30:54.792Z,39
2017-05-15T15:32:02.876Z,39
2017-05-15T15:33:10.963Z,40
2017-05-15T15:34:19.047Z,39
2017-05-15T15:35:27.135Z,40
2017-05-15T15:36:35.224Z,40
2017-05-15T15:37:43.311Z,40
2017-05-15T15:38:51.396Z,40
2017-05-15T15:39:59.484Z,40
2017-05-15T15:41:07.572Z,40
2017-05-15T15:42:15.656Z,40
2017-05-15T15:43:23.743Z,40
2017-05-15T15:44:31.829Z,40
2017-05-15T15:45:39.980Z,40
2017-05-15T15:46:48.008Z,40
2017-05-15T15:47:56.097Z,40
2017-05-15T15:49:04.182Z,40
2017-05-15T15:50:12.270Z,40
2017-05-15T15:51:20.357Z,40
2017-05-15T15:52:28.445Z,40
2017-05-15T15:53:36.538Z,40
2017-05-15T15:54:44.623Z,40
2017-05-15T15:55:52.712Z,40
2017-05-15T15:57:00.799Z,40
2017-05-15T15:58:08.886Z,40
2017-05-15T15:59:16.979Z,40
2017-05-15T16:00:25.060Z,40
2017-05-15T16:01:33.200Z,40
2017-05-15T16:02:41.296Z,40
2017-05-15T16:03:49.318Z,40
2017-05-15T16:04:57.407Z,40
2017-05-15T16:06:05.493Z,40
2017-05-15T16:07:13.581Z,40
2017-05-15T16:08:21.666Z,40
2017-05-15T16:09:29.754Z,40
2017-05-15T16:10:37.844Z,40
2017-05-15T16:11:45.931Z,40
2017-05-15T16:12:54.020Z,40
2017-05-15T16:14:02.108Z,40